Airfield :
LOGIN :

Register | Disclaimer

   EN    FR    IT 

 










Legend :    VFR   Marginal VFR   IFR   Intensive IFR   Very Intensive IFR
Visi :
Ceiling :
>= 8 km
>= 3000ft
5 to 8 km
1000 to 3000 ft
1500m to 5 km
500 to 1000 ft
800 to 1500m
200 to 500 ft
< 800m
< 200 ft
Symbols :   Thunderstorms  Fog  Heavy snow  Heavy precipitations  Wind > 20 kt
SIGMETs :     Misc.  Thunderstorms  Icing  Turbulence  Mountain Waves  Volcanic Ashes






- Airport Elevation : 408 ft
- IATA code : FKB


EDSB - Karlsruhe Baden Baden

CURRENT METAR :
  • 101320Z 20005KT CAVOK 07/01 Q1028

EXPIRED METARs :
  • 101250Z 21006KT 180V270 9999 SCT025 BKN049 06/01 Q1028
  • 101220Z 20007KT 9999 SCT023 06/01 Q1028
  • 101150Z 19006KT 150V230 9999 SCT016 06/02 Q1029
  • 101120Z 20007KT 9999 BKN018 05/02 Q1029
  • 101050Z 22006KT 9999 FEW016 05/02 Q1029

TAF TAF EDSB
Valid from the 10 at 12:00 until the 11 at 12:00 UTC


101100Z 1012/1112 21006KT 9999 FEW015
BECMG 1014/1017 VRB03KT



MET'MAP, your aeronautical weather chart ! - Copyright ORBIFLY December 2007 - Disclaimer

ORBIFLY MET'MAP TEAM :

Programming & Development : Alexandra Zaïnal
Concept & original design : Baudouin d'Aumeries
Assistance for programming : Marc-Olivier Méhu
Technical & hardware support : Manuel Goepfert

Contact : metmap@orbifly.com




SOURCES & CREDITS :

   NOAA